UAL457 LEMH-LPPT
Flight info
| Callsign | UAL457 |
|---|---|
| Flight time | N/A |
| Altitude | 35000 |
| Route | EPAMA N733 ARGOR DCT VLC/N0399F130 N733 CJN N975 ELVAR DCT UPULO |
| Aircraft | B77W/H-SDE1E2E3FGHIJ2J3J4J5M1RWXY/LB1D1 |
Departure
| Time | 2026-04-20 18:55 |
|---|---|
| Airport | Menorca Airport (LEMH) |
Arrival
| Time | N/A |
|---|---|
| Airport | Lisbon Humberto Delgado Airport (LPPT) |
| Time | Latitude | Longitude | Altitude | Speed | Heading |
|---|---|---|---|---|---|
| 2026-04-20 18:35 | 39.86612 | 4.22269 | 300 ft | 0 kts | 51° |
| 2026-04-20 18:49 | 39.86618 | 4.22284 | 300 ft | 7 kts | 67° |
| 2026-04-20 18:49 | 39.86571 | 4.22339 | 299 ft | 12 kts | 184° |
| 2026-04-20 18:50 | 39.86492 | 4.22322 | 295 ft | 12 kts | 189° |
| 2026-04-20 18:50 | 39.86410 | 4.22305 | 298 ft | 12 kts | 189° |
| 2026-04-20 18:50 | 39.86329 | 4.22289 | 296 ft | 12 kts | 189° |
| 2026-04-20 18:50 | 39.86228 | 4.22266 | 296 ft | 17 kts | 198° |
| 2026-04-20 18:51 | 39.86193 | 4.22180 | 298 ft | 17 kts | 266° |
| 2026-04-20 18:51 | 39.86079 | 4.22067 | 303 ft | 17 kts | 190° |
| 2026-04-20 18:51 | 39.85958 | 4.22042 | 302 ft | 17 kts | 189° |
| 2026-04-20 18:51 | 39.85837 | 4.22017 | 300 ft | 18 kts | 189° |
| 2026-04-20 18:52 | 39.85754 | 4.22000 | 300 ft | 19 kts | 189° |
| 2026-04-20 18:52 | 39.85576 | 4.21963 | 295 ft | 20 kts | 189° |
| 2026-04-20 18:52 | 39.85483 | 4.21943 | 292 ft | 20 kts | 189° |
| 2026-04-20 18:52 | 39.85347 | 4.21915 | 287 ft | 20 kts | 189° |
| 2026-04-20 18:53 | 39.85210 | 4.21887 | 286 ft | 20 kts | 189° |
| 2026-04-20 18:53 | 39.85078 | 4.21842 | 285 ft | 19 kts | 226° |
| 2026-04-20 18:53 | 39.85075 | 4.21766 | 285 ft | 0 kts | 305° |
| 2026-04-20 18:54 | 39.85100 | 4.21723 | 287 ft | 12 kts | 310° |
| 2026-04-20 18:55 | 39.85201 | 4.21650 | 295 ft | 24 kts | 1° |
| 2026-04-20 18:55 | 39.85497 | 4.21709 | 298 ft | 85 kts | 9° |
| 2026-04-20 18:55 | 39.86472 | 4.21906 | 329 ft | 199 kts | 8° |
| 2026-04-20 18:55 | 39.88039 | 4.22216 | 1300 ft | 238 kts | 9° |
| 2026-04-20 18:56 | 39.89566 | 4.22533 | 3010 ft | 214 kts | 8° |
| 2026-04-20 18:56 | 39.91061 | 4.22850 | 3676 ft | 226 kts | 8° |
| 2026-04-20 18:56 | 39.92720 | 4.23200 | 3926 ft | 256 kts | 8° |
| 2026-04-20 18:56 | 39.94539 | 4.23579 | 4574 ft | 268 kts | 8° |
| 2026-04-20 18:57 | 39.96401 | 4.23964 | 5465 ft | 272 kts | 7° |
| 2026-04-20 18:57 | 39.98259 | 4.24332 | 6363 ft | 271 kts | 4° |
| 2026-04-20 18:57 | 40.00114 | 4.23956 | 7002 ft | 275 kts | 330° |
| 2026-04-20 18:57 | 40.01470 | 4.22245 | 7842 ft | 274 kts | 296° |
| 2026-04-20 18:58 | 40.01861 | 4.19865 | 8675 ft | 275 kts | 268° |
| 2026-04-20 18:58 | 40.01380 | 4.17423 | 9425 ft | 282 kts | 246° |
| 2026-04-20 18:58 | 40.00490 | 4.15124 | 10152 ft | 284 kts | 248° |
| 2026-04-20 18:58 | 39.99714 | 4.12677 | 10518 ft | 304 kts | 245° |
| 2026-04-20 18:59 | 39.98568 | 4.10243 | 10739 ft | 333 kts | 234° |
| 2026-04-20 18:59 | 39.96990 | 4.07855 | 10960 ft | 361 kts | 226° |
| 2026-04-20 18:59 | 39.95039 | 4.05690 | 11638 ft | 374 kts | 217° |
| 2026-04-20 18:59 | 39.92774 | 4.03933 | 12598 ft | 382 kts | 207° |
| 2026-04-20 19:00 | 39.90299 | 4.02708 | 13691 ft | 388 kts | 198° |
| 2026-04-20 19:00 | 39.87617 | 4.02057 | 14657 ft | 396 kts | 187° |
| 2026-04-20 19:00 | 39.84824 | 4.02067 | 15593 ft | 405 kts | 177° |
| 2026-04-20 19:00 | 39.82019 | 4.02776 | 16503 ft | 415 kts | 166° |
| 2026-04-20 19:01 | 39.79322 | 4.04127 | 17324 ft | 418 kts | 160° |
| 2026-04-20 19:01 | 39.76511 | 4.05047 | 17769 ft | 420 kts | 182° |
| 2026-04-20 19:01 | 39.73679 | 4.04437 | 18530 ft | 415 kts | 205° |
| 2026-04-20 19:01 | 39.71189 | 4.02588 | 19377 ft | 410 kts | 221° |
| 2026-04-20 19:02 | 39.69158 | 4.00004 | 20146 ft | 410 kts | 232° |
| 2026-04-20 19:02 | 39.67343 | 3.97103 | 20816 ft | 416 kts | 234° |
| 2026-04-20 19:02 | 39.65533 | 3.94122 | 21517 ft | 422 kts | 234° |
| 2026-04-20 19:02 | 39.63725 | 3.91152 | 22245 ft | 427 kts | 234° |
| 2026-04-20 19:03 | 39.61855 | 3.88119 | 22985 ft | 432 kts | 233° |
| 2026-04-20 19:03 | 39.59952 | 3.85076 | 23668 ft | 438 kts | 233° |
| 2026-04-20 19:03 | 39.58008 | 3.81999 | 24268 ft | 442 kts | 233° |
| 2026-04-20 19:03 | 39.56041 | 3.78907 | 24886 ft | 445 kts | 233° |
| 2026-04-20 19:04 | 39.54058 | 3.75800 | 25497 ft | 449 kts | 233° |
| 2026-04-20 19:04 | 39.52081 | 3.72708 | 26106 ft | 451 kts | 233° |
| 2026-04-20 19:04 | 39.50055 | 3.69540 | 26671 ft | 455 kts | 233° |
| 2026-04-20 19:04 | 39.48026 | 3.66370 | 27219 ft | 459 kts | 233° |
| 2026-04-20 19:05 | 39.46001 | 3.63208 | 27772 ft | 462 kts | 233° |
| 2026-04-20 19:05 | 39.43938 | 3.59989 | 28304 ft | 465 kts | 233° |
| 2026-04-20 19:05 | 39.41863 | 3.56755 | 28835 ft | 468 kts | 233° |
| 2026-04-20 19:05 | 39.39772 | 3.53498 | 29299 ft | 471 kts | 233° |
| 2026-04-20 19:06 | 39.37697 | 3.50270 | 29741 ft | 473 kts | 234° |
| 2026-04-20 19:06 | 39.35712 | 3.46898 | 30026 ft | 470 kts | 243° |
| 2026-04-20 19:06 | 39.34514 | 3.43002 | 30194 ft | 468 kts | 259° |
| 2026-04-20 19:06 | 39.34066 | 3.38858 | 30645 ft | 464 kts | 269° |
| 2026-04-20 19:07 | 39.34291 | 3.34734 | 31146 ft | 456 kts | 281° |
| 2026-04-20 19:07 | 39.34942 | 3.30724 | 31543 ft | 456 kts | 283° |
| 2026-04-20 19:07 | 39.35627 | 3.26707 | 32004 ft | 455 kts | 283° |
| 2026-04-20 19:07 | 39.36298 | 3.22719 | 32517 ft | 453 kts | 282° |
| 2026-04-20 19:08 | 39.36939 | 3.18798 | 33000 ft | 451 kts | 282° |
| 2026-04-20 19:08 | 39.38191 | 3.10834 | 33890 ft | 449 kts | 281° |
| 2026-04-20 19:08 | 39.38793 | 3.06920 | 34281 ft | 448 kts | 281° |
| 2026-04-20 19:09 | 39.39398 | 3.02963 | 34669 ft | 446 kts | 281° |
| 2026-04-20 19:09 | 39.40000 | 2.99024 | 35005 ft | 446 kts | 281° |
| 2026-04-20 19:09 | 39.40603 | 2.95062 | 34973 ft | 450 kts | 281° |
| 2026-04-20 19:10 | 39.41806 | 2.87154 | 34972 ft | 447 kts | 281° |
| 2026-04-20 19:10 | 39.43000 | 2.79280 | 34996 ft | 444 kts | 281° |
| 2026-04-20 19:11 | 39.44614 | 2.71645 | 35003 ft | 443 kts | 291° |
| 2026-04-20 19:11 | 39.47081 | 2.64293 | 34994 ft | 444 kts | 292° |
| 2026-04-20 19:12 | 39.49487 | 2.56964 | 34994 ft | 444 kts | 291° |
| 2026-04-20 19:12 | 39.51833 | 2.49521 | 34995 ft | 445 kts | 291° |
| 2026-04-20 19:13 | 39.54152 | 2.42121 | 34985 ft | 446 kts | 290° |
| 2026-04-20 19:13 | 39.55391 | 2.34341 | 35002 ft | 441 kts | 273° |
| 2026-04-20 19:14 | 39.55722 | 2.26375 | 34975 ft | 443 kts | 274° |
| 2026-04-20 19:14 | 39.56128 | 2.18414 | 34982 ft | 445 kts | 274° |
| 2026-04-20 19:15 | 39.56566 | 2.10422 | 34975 ft | 446 kts | 274° |
| 2026-04-20 19:15 | 39.57007 | 2.02360 | 34970 ft | 447 kts | 274° |
| 2026-04-20 19:16 | 39.57438 | 1.94353 | 34964 ft | 446 kts | 274° |
| 2026-04-20 19:16 | 39.57861 | 1.86360 | 34975 ft | 446 kts | 274° |
| 2026-04-20 19:17 | 39.58280 | 1.78319 | 34974 ft | 445 kts | 274° |
| 2026-04-20 19:17 | 39.58691 | 1.70338 | 34969 ft | 444 kts | 273° |
| 2026-04-20 19:18 | 39.59096 | 1.62368 | 34964 ft | 444 kts | 273° |
| 2026-04-20 19:18 | 39.59497 | 1.54369 | 34966 ft | 444 kts | 273° |
| 2026-04-20 19:19 | 39.59891 | 1.46409 | 34966 ft | 443 kts | 273° |
| 2026-04-20 19:19 | 39.60270 | 1.38603 | 34966 ft | 443 kts | 272° |
| 2026-04-20 19:20 | 39.60112 | 1.30603 | 34969 ft | 443 kts | 265° |
| 2026-04-20 19:20 | 39.59544 | 1.22671 | 34966 ft | 444 kts | 265° |
| 2026-04-20 19:21 | 39.59009 | 1.14679 | 34958 ft | 444 kts | 265° |
| 2026-04-20 19:21 | 39.58538 | 1.06717 | 34954 ft | 444 kts | 265° |
| 2026-04-20 19:22 | 39.58082 | 0.98760 | 34953 ft | 445 kts | 265° |
| 2026-04-20 19:22 | 39.57616 | 0.90736 | 34942 ft | 445 kts | 265° |
| 2026-04-20 19:23 | 39.57144 | 0.82726 | 34947 ft | 445 kts | 265° |
| 2026-04-20 19:23 | 39.56667 | 0.74757 | 34944 ft | 446 kts | 265° |
| 2026-04-20 19:24 | 39.56183 | 0.66727 | 34944 ft | 447 kts | 265° |
| 2026-04-20 19:24 | 39.55690 | 0.58669 | 34939 ft | 448 kts | 265° |
| 2026-04-20 19:25 | 39.55197 | 0.50645 | 34937 ft | 449 kts | 265° |
| 2026-04-20 19:25 | 39.54695 | 0.42542 | 34935 ft | 449 kts | 265° |
| 2026-04-20 19:26 | 39.54191 | 0.34495 | 34929 ft | 450 kts | 265° |
| 2026-04-20 19:26 | 39.53676 | 0.26407 | 34934 ft | 450 kts | 264° |
| 2026-04-20 19:27 | 39.53148 | 0.18310 | 34932 ft | 450 kts | 264° |
| 2026-04-20 19:27 | 39.52614 | 0.10215 | 34933 ft | 451 kts | 264° |
| 2026-04-20 19:28 | 39.52079 | 0.02168 | 34937 ft | 451 kts | 264° |
| 2026-04-20 19:28 | 39.51534 | -0.05954 | 34933 ft | 451 kts | 264° |
| 2026-04-20 19:29 | 39.50986 | -0.14040 | 34941 ft | 452 kts | 264° |
| 2026-04-20 19:29 | 39.50432 | -0.22124 | 34942 ft | 452 kts | 264° |
| 2026-04-20 19:30 | 39.49869 | -0.30258 | 34941 ft | 453 kts | 264° |
| 2026-04-20 19:30 | 39.49304 | -0.38356 | 34939 ft | 453 kts | 264° |
| 2026-04-20 19:31 | 39.49249 | -0.46450 | 34943 ft | 454 kts | 278° |
| 2026-04-20 19:31 | 39.51114 | -0.54285 | 34940 ft | 459 kts | 295° |
| 2026-04-20 19:32 | 39.54295 | -0.61447 | 34948 ft | 461 kts | 298° |
| 2026-04-20 19:32 | 39.57556 | -0.68637 | 34947 ft | 461 kts | 297° |
| 2026-04-20 19:33 | 39.60729 | -0.75794 | 34953 ft | 459 kts | 297° |
| 2026-04-20 19:33 | 39.63898 | -0.83025 | 34958 ft | 459 kts | 297° |
| 2026-04-20 19:34 | 39.67039 | -0.90211 | 34967 ft | 459 kts | 297° |
| 2026-04-20 19:34 | 39.70191 | -0.97427 | 34901 ft | 459 kts | 297° |
| 2026-04-20 19:35 | 39.73317 | -1.04601 | 34886 ft | 459 kts | 297° |
| 2026-04-20 19:35 | 39.76464 | -1.11848 | 34887 ft | 459 kts | 297° |
| 2026-04-20 19:36 | 39.79606 | -1.19122 | 34897 ft | 464 kts | 296° |
| 2026-04-20 19:36 | 39.82775 | -1.26423 | 35408 ft | 463 kts | 297° |
| 2026-04-20 19:36 | 39.84362 | -1.30041 | 35956 ft | 458 kts | 297° |
| 2026-04-20 19:37 | 39.85942 | -1.33650 | 36292 ft | 458 kts | 297° |
| 2026-04-20 19:37 | 39.86981 | -1.36030 | 36543 ft | 457 kts | 297° |
| 2026-04-20 19:37 | 39.88830 | -1.40272 | 36987 ft | 454 kts | 297° |
| 2026-04-20 19:37 | 39.89318 | -1.41393 | 37140 ft | 454 kts | 297° |
| 2026-04-20 19:38 | 39.90871 | -1.44971 | 37525 ft | 452 kts | 297° |
| 2026-04-20 19:38 | 39.92400 | -1.48513 | 37836 ft | 452 kts | 297° |
| 2026-04-20 19:38 | 39.93935 | -1.52082 | 38138 ft | 451 kts | 297° |
| 2026-04-20 19:38 | 39.95433 | -1.55572 | 38295 ft | 454 kts | 297° |
| 2026-04-20 19:39 | 39.97030 | -1.59298 | 38467 ft | 456 kts | 297° |
| 2026-04-20 19:39 | 39.98555 | -1.62856 | 38895 ft | 450 kts | 297° |
| 2026-04-20 19:39 | 40.00083 | -1.66422 | 38973 ft | 451 kts | 297° |
| 2026-04-20 19:40 | 40.03077 | -1.73423 | 38979 ft | 443 kts | 297° |
| 2026-04-20 19:40 | 40.06058 | -1.80427 | 38980 ft | 439 kts | 295° |
| 2026-04-20 19:41 | 40.08246 | -1.87751 | 38797 ft | 432 kts | 284° |
| 2026-04-20 19:41 | 40.08901 | -1.91512 | 38119 ft | 418 kts | 279° |
| 2026-04-20 19:41 | 40.09435 | -1.95231 | 36961 ft | 417 kts | 278° |
| 2026-04-20 19:41 | 40.09954 | -1.98985 | 35624 ft | 418 kts | 278° |
| 2026-04-20 19:42 | 40.10468 | -2.02719 | 34416 ft | 416 kts | 278° |
| 2026-04-20 19:42 | 40.10979 | -2.06389 | 33147 ft | 413 kts | 278° |
| 2026-04-20 19:42 | 40.11495 | -2.10060 | 31853 ft | 409 kts | 278° |
| 2026-04-20 19:42 | 40.12010 | -2.13701 | 30558 ft | 405 kts | 278° |
| 2026-04-20 19:43 | 40.12351 | -2.16107 | 29523 ft | 405 kts | 278° |
| 2026-04-20 19:43 | 40.13041 | -2.20964 | 27378 ft | 405 kts | 279° |
| 2026-04-20 19:43 | 40.13547 | -2.24534 | 25893 ft | 403 kts | 279° |
| 2026-04-20 19:43 | 40.14057 | -2.28131 | 24465 ft | 401 kts | 279° |
| 2026-04-20 19:44 | 40.14563 | -2.31707 | 22997 ft | 398 kts | 280° |
| 2026-04-20 19:44 | 40.15064 | -2.35255 | 21440 ft | 394 kts | 279° |
| 2026-04-20 19:44 | 40.15559 | -2.38773 | 19956 ft | 391 kts | 279° |
| 2026-04-20 19:44 | 40.16049 | -2.42260 | 18527 ft | 388 kts | 279° |
| 2026-04-20 19:45 | 40.16533 | -2.45714 | 17006 ft | 385 kts | 279° |
| 2026-04-20 19:45 | 40.17003 | -2.49080 | 16055 ft | 370 kts | 279° |
| 2026-04-20 19:45 | 40.17450 | -2.52273 | 15579 ft | 345 kts | 279° |
| 2026-04-20 19:45 | 40.17871 | -2.55288 | 15129 ft | 333 kts | 279° |
| 2026-04-20 19:46 | 40.18289 | -2.58312 | 14691 ft | 344 kts | 279° |
| 2026-04-20 19:46 | 40.18728 | -2.61496 | 14206 ft | 366 kts | 279° |
| 2026-04-20 19:46 | 40.19188 | -2.64843 | 13647 ft | 385 kts | 279° |
| 2026-04-20 19:46 | 40.19669 | -2.68332 | 13052 ft | 388 kts | 279° |
| 2026-04-20 19:47 | 40.20146 | -2.71796 | 12456 ft | 385 kts | 279° |
| 2026-04-20 19:47 | 40.20616 | -2.75209 | 11913 ft | 382 kts | 279° |
| 2026-04-20 19:47 | 40.21084 | -2.78616 | 11371 ft | 378 kts | 279° |
| 2026-04-20 19:47 | 40.21531 | -2.81877 | 10938 ft | 349 kts | 279° |
| 2026-04-20 19:48 | 40.21941 | -2.84862 | 10790 ft | 315 kts | 278° |
| 2026-04-20 19:48 | 40.22306 | -2.87527 | 10648 ft | 286 kts | 278° |
| 2026-04-20 19:48 | 40.22644 | -2.90008 | 10544 ft | 268 kts | 278° |
| 2026-04-20 19:48 | 40.22961 | -2.92357 | 10430 ft | 259 kts | 278° |
| 2026-04-20 19:49 | 40.23276 | -2.94706 | 10364 ft | 266 kts | 278° |
| 2026-04-20 19:49 | 40.23604 | -2.97137 | 10256 ft | 276 kts | 278° |
| 2026-04-20 19:49 | 40.23940 | -2.99627 | 10131 ft | 275 kts | 278° |
| 2026-04-20 19:49 | 40.24266 | -3.02050 | 10001 ft | 268 kts | 278° |
| 2026-04-20 19:50 | 40.24585 | -3.04416 | 9795 ft | 264 kts | 278° |
| 2026-04-20 19:50 | 40.24904 | -3.06794 | 9464 ft | 263 kts | 277° |
| 2026-04-20 19:50 | 40.25221 | -3.09158 | 9189 ft | 266 kts | 278° |
| 2026-04-20 19:50 | 40.25541 | -3.11548 | 8890 ft | 273 kts | 278° |
| 2026-04-20 19:51 | 40.25868 | -3.14001 | 8569 ft | 275 kts | 278° |
| 2026-04-20 19:51 | 40.26197 | -3.16469 | 8251 ft | 274 kts | 278° |
| 2026-04-20 19:51 | 40.26523 | -3.18935 | 7934 ft | 273 kts | 278° |
| 2026-04-20 19:51 | 40.26844 | -3.21366 | 7615 ft | 273 kts | 278° |
| 2026-04-20 19:52 | 40.27167 | -3.23811 | 7307 ft | 272 kts | 278° |
| 2026-04-20 19:52 | 40.27489 | -3.26255 | 7128 ft | 266 kts | 278° |
| 2026-04-20 19:52 | 40.27796 | -3.28589 | 7019 ft | 257 kts | 278° |
| 2026-04-20 19:52 | 40.28094 | -3.30851 | 6858 ft | 251 kts | 278° |
| 2026-04-20 19:53 | 40.28593 | -3.32994 | 6572 ft | 244 kts | 303° |
| 2026-04-20 19:53 | 40.29649 | -3.34638 | 6344 ft | 234 kts | 310° |
| 2026-04-20 19:53 | 40.30710 | -3.36251 | 6063 ft | 232 kts | 309° |
| 2026-04-20 19:53 | 40.31787 | -3.37786 | 5793 ft | 229 kts | 316° |
| 2026-04-20 19:54 | 40.33021 | -3.39112 | 5505 ft | 226 kts | 321° |
| 2026-04-20 19:54 | 40.34255 | -3.40342 | 5236 ft | 224 kts | 321° |
| 2026-04-20 19:54 | 40.35478 | -3.41571 | 5135 ft | 212 kts | 321° |
| 2026-04-20 19:54 | 40.36615 | -3.42721 | 4901 ft | 198 kts | 321° |
| 2026-04-20 19:55 | 40.37668 | -3.43787 | 4528 ft | 191 kts | 320° |
| 2026-04-20 19:55 | 40.38720 | -3.44897 | 3903 ft | 195 kts | 319° |
| 2026-04-20 19:55 | 40.39771 | -3.45938 | 3546 ft | 187 kts | 321° |
| 2026-04-20 19:55 | 40.40806 | -3.46958 | 3105 ft | 184 kts | 321° |
| 2026-04-20 19:56 | 40.41814 | -3.47958 | 2936 ft | 184 kts | 319° |
| 2026-04-20 19:56 | 40.42791 | -3.48997 | 3098 ft | 181 kts | 320° |
| 2026-04-20 19:56 | 40.43789 | -3.50025 | 3060 ft | 183 kts | 321° |
| 2026-04-20 19:56 | 40.44802 | -3.51032 | 2791 ft | 181 kts | 321° |
| 2026-04-20 19:57 | 40.45775 | -3.52004 | 2285 ft | 169 kts | 321° |
| 2026-04-20 19:57 | 40.46609 | -3.52888 | 2104 ft | 151 kts | 321° |
| 2026-04-20 19:57 | 40.47461 | -3.53721 | 1988 ft | 146 kts | 322° |
| 2026-04-20 19:57 | 40.48181 | -3.54458 | 1988 ft | 115 kts | 322° |
| 2026-04-20 19:58 | 40.48718 | -3.54999 | 1987 ft | 80 kts | 322° |
| 2026-04-20 19:58 | 40.49027 | -3.55311 | 1989 ft | 48 kts | 322° |
| 2026-04-20 19:58 | 40.49185 | -3.55545 | 1989 ft | 24 kts | 301° |
| 2026-04-20 19:58 | 40.49256 | -3.55742 | 1989 ft | 24 kts | 293° |
| 2026-04-20 19:59 | 40.49301 | -3.55948 | 1987 ft | 24 kts | 270° |
| 2026-04-20 19:59 | 40.49299 | -3.56166 | 1989 ft | 24 kts | 263° |
| 2026-04-20 19:59 | 40.49167 | -3.56249 | 1985 ft | 24 kts | 180° |
| 2026-04-20 19:59 | 40.49000 | -3.56250 | 1985 ft | 24 kts | 180° |
| 2026-04-20 20:00 | 40.48866 | -3.56281 | 1986 ft | 14 kts | 240° |
| 2026-04-20 20:00 | 40.48863 | -3.56410 | 1985 ft | 14 kts | 271° |
| 2026-04-20 20:00 | 40.48891 | -3.56531 | 1987 ft | 14 kts | 315° |
| 2026-04-20 20:00 | 40.48965 | -3.56619 | 1987 ft | 14 kts | 320° |
| 2026-04-20 20:01 | 40.48988 | -3.56643 | 1989 ft | 2 kts | 321° |
| 2026-04-20 20:01 | 40.48989 | -3.56644 | 1989 ft | 0 kts | 321° |